Nearby METAR Reports

 

KSNK - Snyder/Winston, Texas, USA
Distance from station: SSE 25mi, 41km
Updated: Mon, 17-Jun-2019 11:35am CDT
Clear
Clear
 Wind from SE
Wind: SE 7 mph , 11 km/h
Temperature: 79°F , 26°C
Dew Point: 59°F , 15°C
Humidity: 51%
Barometer: 30.03 inHg , 1016.9 hPa
Clouds: Clear
Visibility: 10 miles , 16 km
2019/06/17 16:35 KSNK 171635Z AUTO 13006KT 10SM CLR 26/15 A3003 RMK AO2 T02590149
KSWW - Sweetwater, Texas, USA
Distance from station: SE 56mi, 90km
Updated: Mon, 17-Jun-2019 11:35am CDT
Clear
Clear
 Wind from calm
Wind: Calm
Temperature: 81°F , 27°C
Heat Index: 82°F , 28°C
Dew Point: 61°F , 16°C
Humidity: 51%
Barometer: 30.05 inHg , 1017.6 hPa
Clouds: Clear
Visibility: 10 miles , 16 km
2019/06/17 16:35 KSWW 171635Z AUTO 00000KT 10SM CLR 27/16 A3005 RMK AO2 T02650160
 
KLBB - Lubbock, Texas, USA
Distance from station: NW 59mi, 94km
Updated: Mon, 17-Jun-2019 10:53am CDT
Few Clouds
Few Clouds
 Wind from S
Wind: S 8 mph , 13 km/h
Temperature: 75°F , 24°C
Dew Point: 55°F , 13°C
Humidity: 50%
Barometer: 30.06 inHg , 1017.9 hPa
Clouds: Few Clouds
Visibility: 10 miles , 16 km
Cloud details: Few Clouds 4500 ft
Few Clouds 25000 ft
2019/06/17 15:53 KLBB 171553Z 17007KT 10SM FEW045 FEW250 24/13 A3006 RMK AO2 SLP132 T02440128
KPVW - Plainview, Texas, USA
Distance from station: NNW 85mi, 137km
Updated: Mon, 17-Jun-2019 11:35am CDT
Clear
Clear
 Wind from SSE
Wind: SSE 3 mph , 6 km/h
Temperature: 75°F , 24°C
Dew Point: 55°F , 13°C
Humidity: 50%
Barometer: 30.08 inHg , 1018.6 hPa
Clouds: Clear
Visibility: 10 miles , 16 km
2019/06/17 16:35 KPVW 171635Z AUTO 16003KT 10SM CLR 24/13 A3008 RMK AO2 T02410127
 
KDYS - Dyess Afb/Abilen, Texas, USA
Distance from station: ESE 88mi, 141km
Updated: Mon, 17-Jun-2019 10:56am CDT
Clear
Clear
 Wind from ENE
Wind: ENE 3 mph , 6 km/h
Temperature: 79°F , 26°C
Dew Point: 61°F , 16°C
Humidity: 54%
Barometer: 29.98 inHg , 1015.2 hPa
Clouds: Clear
Visibility: 10 miles , 16 km
2019/06/17 15:56 KDYS 171556Z 06003KT 10SM CLR 26/16 A2998 RMK AO2A SLP110 T02580158 $
KGNC - Seminole, Texas, USA
Distance from station: WSW 89mi, 144km
Updated: Mon, 17-Jun-2019 11:35am CDT
Clear
Clear
 Wind from E
Wind: E 8 mph , 13 km/h
Temperature: 79°F , 26°C
Dew Point: 61°F , 16°C
Humidity: 54%
Barometer: 30.09 inHg , 1019 hPa
Clouds: Clear
Visibility: 10 miles , 16 km
2019/06/17 16:35 KGNC 171635Z AUTO 10007KT 10SM CLR 26/16 A3009 RMK AO2 T02600162
 
KE11 - Andrews, Texas, USA
Distance from station: WSW 93mi, 149km
Updated: Mon, 17-Jun-2019 11:35am CDT
Mostly cloudy
Mostly cloudy
 Wind from SSE
Wind: SSE 8 mph , 13 km/h, Gust: 16 mph , 26 km/h
Temperature: 79°F , 26°C
Dew Point: 64°F , 18°C
Humidity: 61%
Barometer: 30.04 inHg , 1017.3 hPa
Clouds: Mostly cloudy
Visibility: 10 miles , 16 km
Cloud details: Mostly cloudy 3000 ft
2019/06/17 16:35 KE11 171635Z AUTO 15007G14KT 10SM BKN030 26/18 A3004 RMK AO2 T02630180
KABI - Abilene, Texas, USA
Distance from station: ESE 96mi, 154km
Updated: Mon, 17-Jun-2019 10:52am CDT
Clear
Clear
 
Temperature: 81°F , 27°C
Heat Index: 83°F , 28°C
Dew Point: 64°F , 18°C
Humidity: 58%
Barometer: 29.99 inHg , 1015.6 hPa
Clouds: Clear
Visibility: 10 miles , 16 km
2019/06/17 15:52 KABI 171552Z 10SM CLR 27/18 A2999 RMK AO2 SLP130 T02670183
 
KMAF - Midland, Texas, USA
Distance from station: SW 96mi, 154km
Updated: Mon, 17-Jun-2019 10:53am CDT
Overcast
Overcast
 Wind from SSE
Wind: SSE 9 mph , 15 km/h
Temperature: 81°F , 27°C
Heat Index: 83°F , 28°C
Dew Point: 66°F , 19°C
Humidity: 62%
Barometer: 30.02 inHg , 1016.6 hPa
Clouds: Overcast
Visibility: 10 miles , 16 km
Cloud details: Mostly cloudy 2400 ft
Overcast 3000 ft
2019/06/17 15:53 KMAF 171553Z 15008KT 10SM BKN024 OVC030 27/19 A3002 RMK AO2 SLP116 T02670194
KCDS - Childress, Texas, USA
Distance from station: NNE 110mi, 177km
Updated: Mon, 17-Jun-2019 10:53am CDT
Clear
Clear
 Wind from WSW
Wind: WSW 5 mph , 7 km/h
Temperature: 79°F , 26°C
Dew Point: 61°F , 16°C
Humidity: 54%
Barometer: 30.02 inHg , 1016.6 hPa
Clouds: Clear
Visibility: 10 miles , 16 km
2019/06/17 15:53 KCDS 171553Z AUTO 25004KT 10SM CLR 26/16 A3002 RMK AO2 SLP143 T02560156
 
KSJT - San Angelo, Texas, USA
Distance from station: SSE 121mi, 194km
Updated: Mon, 17-Jun-2019 10:51am CDT
Mostly cloudy
Mostly cloudy
 Wind from calm
Wind: Calm
Temperature: 75°F , 24°C
Dew Point: 64°F , 18°C
Humidity: 69%
Barometer: 30.00 inHg , 1015.9 hPa
Clouds: Mostly cloudy
Visibility: 10 miles , 16 km
Cloud details: Mostly cloudy 4500 ft
2019/06/17 15:51 KSJT 171551Z 00000KT 10SM BKN045 24/18 A3000 RMK AO2 SLP134 T02390183
KHOB - Hobbs/Lea Co., New Mexico, USA
Distance from station: WSW 122mi, 196km
Updated: Mon, 17-Jun-2019 10:50am CDT
Few Clouds
Few Clouds
 Wind from SE
Wind: SE 15 mph , 24 km/h
Temperature: 77°F , 25°C
Dew Point: 61°F , 16°C
Humidity: 57%
Barometer: 30.05 inHg , 1017.6 hPa
Clouds: Few Clouds
Visibility: 10 miles , 16 km
Cloud details: Few Clouds 2400 ft
2019/06/17 15:50 KHOB 171550Z 13013KT 10SM FEW024 25/16 A3005
 
KCOM - Coleman Muni, Texas, USA
Distance from station: SE 131mi, 212km
Updated: Mon, 17-Jun-2019 11:35am CDT
Clear
Clear
 Wind from N
Wind: N 8 mph , 13 km/h
Temperature: 79°F , 26°C
Dew Point: 68°F , 20°C
Humidity: 70%
Barometer: 29.98 inHg , 1015.2 hPa
Clouds: Clear
Visibility: 10 miles , 16 km
2019/06/17 16:35 KCOM 171635Z AUTO 36007KT 10SM CLR 26/20 A2998 RMK AO2 T02560197
KBKD - Breckenridge, Texas, USA
Distance from station: E 134mi, 215km
Updated: Mon, 17-Jun-2019 11:35am CDT
Clear
Clear
 Wind from NE
Wind: NE 5 mph , 7 km/h
Temperature: 81°F , 27°C
Heat Index: 82°F , 28°C
Dew Point: 63°F , 17°C
Humidity: 54%
Barometer: 29.98 inHg , 1015.2 hPa
Clouds: Clear
Visibility: 10 miles , 16 km
2019/06/17 16:35 KBKD 171635Z AUTO 05004KT 10SM CLR 27/17 A2998 RMK AO2 T02720174
 
KF05 - Vernon Wilbarger, Texas, USA
Distance from station: NE 137mi, 220km
Updated: Mon, 17-Jun-2019 11:35am CDT
Clear
Clear
 Wind from WNW
Wind: WNW 6 mph , 9 km/h
Temperature: 82°F , 28°C
Heat Index: 83°F , 28°C
Dew Point: 63°F , 17°C
Humidity: 51%
Barometer: 29.99 inHg , 1015.6 hPa
Clouds: Clear
Visibility: 10 miles , 16 km
2019/06/17 16:35 KF05 171635Z AUTO 30005KT 10SM CLR 28/17 A2999 RMK AO1 T02750165